Ararat, Virginia
Current Conditions -  °F | °C
As of 7:35 AM on Monday 26 Jan 2015 (Local Time) from KMWK Reporting Station
Overcast Overcast  
Wind Chill: 36°   Ceiling: 6000
Heat Index: 40°   Visibility: 10mi
Dew Point: 35°   Wind: 7mph
Humidity: 81%   Direction: 80°E
Pressure: 29.66"   Gusts: NA
Location:  36.6°N, 80.51°W
Report Text: KMWK 261235Z AUTO 08006KT 10SM SCT044 OVC060 05/02 A2966 RMK AO2 T00460016
Loading
Personal Weather Stations






























Interactive Weather Map New forecast layout! Learn more

10-Day Weather Forecast

Advertisements
Track Severe Weather on mobile